sensor_id;sensor_type;location;lat;lon;timestamp;pressure;altitude;pressure_sealevel;temperature
74536;BMP180;63013;51.104;-115.370;2022-08-20T00:21:57;86886.00;;;28.18
74536;BMP180;63013;51.104;-115.370;2022-08-20T00:24:27;86881.00;;;28.20
74536;BMP180;63013;51.104;-115.370;2022-08-20T00:30:34;86878.00;;;28.20
74536;BMP180;63013;51.104;-115.370;2022-08-20T00:33:11;86878.40;;;28.24
74536;BMP180;63013;51.104;-115.370;2022-08-20T00:35:53;86874.80;;;28.30
74536;BMP180;63013;51.104;-115.370;2022-08-20T00:39:00;86874.20;;;28.30
74536;BMP180;63013;51.104;-115.370;2022-08-20T00:41:28;86873.40;;;28.30
74536;BMP180;63013;51.104;-115.370;2022-08-20T00:47:24;86878.40;;;28.30
74536;BMP180;63013;51.104;-115.370;2022-08-20T00:49:55;86877.80;;;28.30
74536;BMP180;63013;51.104;-115.370;2022-08-20T00:52:22;86873.40;;;28.30
74536;BMP180;63013;51.104;-115.370;2022-08-20T00:54:59;86871.00;;;28.30
74536;BMP180;63013;51.104;-115.370;2022-08-20T00:57:50;86871.80;;;28.30
74536;BMP180;63013;51.104;-115.370;2022-08-20T01:00:35;86870.20;;;28.30
74536;BMP180;63013;51.104;-115.370;2022-08-20T01:03:06;86867.80;;;28.30
74536;BMP180;63013;51.104;-115.370;2022-08-20T01:05:41;86868.80;;;28.30
74536;BMP180;63013;51.104;-115.370;2022-08-20T01:08:14;86871.00;;;28.30
74536;BMP180;63013;51.104;-115.370;2022-08-20T01:10:56;86870.80;;;28.30
74536;BMP180;63013;51.104;-115.370;2022-08-20T01:14:08;86872.00;;;28.34
74536;BMP180;63013;51.104;-115.370;2022-08-20T01:17:00;86871.00;;;28.36
74536;BMP180;63013;51.104;-115.370;2022-08-20T01:20:10;86874.20;;;28.40
74536;BMP180;63013;51.104;-115.370;2022-08-20T01:26:48;86865.00;;;28.40
74536;BMP180;63013;51.104;-115.370;2022-08-20T01:29:35;86861.00;;;28.40
74536;BMP180;63013;51.104;-115.370;2022-08-20T01:32:04;86864.60;;;28.40
74536;BMP180;63013;51.104;-115.370;2022-08-20T01:34:35;86866.80;;;28.40
74536;BMP180;63013;51.104;-115.370;2022-08-20T01:37:27;86860.80;;;28.40
74536;BMP180;63013;51.104;-115.370;2022-08-20T01:39:57;86866.40;;;28.40
74536;BMP180;63013;51.104;-115.370;2022-08-20T01:42:44;86867.60;;;28.40
74536;BMP180;63013;51.104;-115.370;2022-08-20T01:45:25;86865.20;;;28.40
74536;BMP180;63013;51.104;-115.370;2022-08-20T01:48:08;86866.20;;;28.40
74536;BMP180;63013;51.104;-115.370;2022-08-20T01:55:18;86876.40;;;28.44
74536;BMP180;63013;51.104;-115.370;2022-08-20T01:58:15;86878.80;;;28.46
74536;BMP180;63013;51.104;-115.370;2022-08-20T02:04:41;86888.40;;;28.50
74536;BMP180;63013;51.104;-115.370;2022-08-20T02:07:28;86889.80;;;28.50
74536;BMP180;63013;51.104;-115.370;2022-08-20T02:10:31;86889.80;;;28.50
74536;BMP180;63013;51.104;-115.370;2022-08-20T02:13:30;86890.40;;;28.50
74536;BMP180;63013;51.104;-115.370;2022-08-20T02:16:37;86890.40;;;28.50
74536;BMP180;63013;51.104;-115.370;2022-08-20T02:23:04;86900.80;;;28.50
74536;BMP180;63013;51.104;-115.370;2022-08-20T02:25:44;86900.60;;;28.50
74536;BMP180;63013;51.104;-115.370;2022-08-20T02:31:32;86902.40;;;28.50
74536;BMP180;63013;51.104;-115.370;2022-08-20T02:34:05;86905.00;;;28.52
74536;BMP180;63013;51.104;-115.370;2022-08-20T02:37:12;86904.20;;;28.50
74536;BMP180;63013;51.104;-115.370;2022-08-20T02:40:31;86901.40;;;28.56
74536;BMP180;63013;51.104;-115.370;2022-08-20T02:44:05;86900.60;;;28.58
74536;BMP180;63013;51.104;-115.370;2022-08-20T02:47:01;86903.40;;;28.58
74536;BMP180;63013;51.104;-115.370;2022-08-20T02:49:39;86899.00;;;28.60
74536;BMP180;63013;51.104;-115.370;2022-08-20T02:52:07;86900.40;;;28.60
74536;BMP180;63013;51.104;-115.370;2022-08-20T02:55:13;86907.00;;;28.60
74536;BMP180;63013;51.104;-115.370;2022-08-20T02:57:58;86926.00;;;28.60
74536;BMP180;63013;51.104;-115.370;2022-08-20T03:00:46;86925.60;;;28.60
74536;BMP180;63013;51.104;-115.370;2022-08-20T03:03:20;86924.60;;;28.60
74536;BMP180;63013;51.104;-115.370;2022-08-20T03:06:01;86923.60;;;28.60
74536;BMP180;63013;51.104;-115.370;2022-08-20T03:08:36;86927.80;;;28.60
74536;BMP180;63013;51.104;-115.370;2022-08-20T03:11:26;86929.20;;;28.56
74536;BMP180;63013;51.104;-115.370;2022-08-20T03:13:53;86934.40;;;28.60
74536;BMP180;63013;51.104;-115.370;2022-08-20T03:16:35;86937.20;;;28.54
74536;BMP180;63013;51.104;-115.370;2022-08-20T03:19:02;86943.00;;;28.54
74536;BMP180;63013;51.104;-115.370;2022-08-20T03:21:33;86944.40;;;28.52
74536;BMP180;63013;51.104;-115.370;2022-08-20T03:24:20;86947.20;;;28.52
74536;BMP180;63013;51.104;-115.370;2022-08-20T03:27:45;86946.00;;;28.54
74536;BMP180;63013;51.104;-115.370;2022-08-20T03:30:32;86945.40;;;28.50
74536;BMP180;63013;51.104;-115.370;2022-08-20T03:32:59;86948.80;;;28.52
74536;BMP180;63013;51.104;-115.370;2022-08-20T03:38:44;86954.20;;;28.58
74536;BMP180;63013;51.104;-115.370;2022-08-20T03:41:19;86954.80;;;28.60
74536;BMP180;63013;51.104;-115.370;2022-08-20T03:44:03;86967.80;;;28.58
74536;BMP180;63013;51.104;-115.370;2022-08-20T03:46:39;86973.20;;;28.60
74536;BMP180;63013;51.104;-115.370;2022-08-20T03:49:06;86969.80;;;28.52
74536;BMP180;63013;51.104;-115.370;2022-08-20T03:51:51;86968.40;;;28.50
74536;BMP180;63013;51.104;-115.370;2022-08-20T03:54:36;86970.40;;;28.50
74536;BMP180;63013;51.104;-115.370;2022-08-20T03:57:15;86977.80;;;28.50
74536;BMP180;63013;51.104;-115.370;2022-08-20T04:00:10;86981.00;;;28.50
74536;BMP180;63013;51.104;-115.370;2022-08-20T04:03:17;86975.20;;;28.50
74536;BMP180;63013;51.104;-115.370;2022-08-20T04:05:45;86976.60;;;28.50
74536;BMP180;63013;51.104;-115.370;2022-08-20T04:08:25;86978.80;;;28.50
74536;BMP180;63013;51.104;-115.370;2022-08-20T04:14:27;86990.80;;;28.50
74536;BMP180;63013;51.104;-115.370;2022-08-20T04:17:16;86993.60;;;28.50
74536;BMP180;63013;51.104;-115.370;2022-08-20T04:19:43;86994.80;;;28.50
74536;BMP180;63013;51.104;-115.370;2022-08-20T04:22:15;86997.20;;;28.50
74536;BMP180;63013;51.104;-115.370;2022-08-20T04:24:48;86994.80;;;28.50
74536;BMP180;63013;51.104;-115.370;2022-08-20T04:27:26;86996.00;;;28.50
74536;BMP180;63013;51.104;-115.370;2022-08-20T04:30:02;86992.60;;;28.50
74536;BMP180;63013;51.104;-115.370;2022-08-20T04:32:29;86992.00;;;28.50
74536;BMP180;63013;51.104;-115.370;2022-08-20T04:35:27;86998.00;;;28.50
74536;BMP180;63013;51.104;-115.370;2022-08-20T04:41:34;86993.80;;;28.50
74536;BMP180;63013;51.104;-115.370;2022-08-20T04:44:19;86992.20;;;28.50
74536;BMP180;63013;51.104;-115.370;2022-08-20T04:46:47;86988.80;;;28.46
74536;BMP180;63013;51.104;-115.370;2022-08-20T04:49:26;86987.00;;;28.44
74536;BMP180;63013;51.104;-115.370;2022-08-20T04:51:56;86978.80;;;28.40
74536;BMP180;63013;51.104;-115.370;2022-08-20T04:54:24;86984.00;;;28.40
74536;BMP180;63013;51.104;-115.370;2022-08-20T04:57:12;86982.00;;;28.40
74536;BMP180;63013;51.104;-115.370;2022-08-20T05:03:11;86985.60;;;28.40
74536;BMP180;63013;51.104;-115.370;2022-08-20T05:09:07;86980.00;;;28.40
74536;BMP180;63013;51.104;-115.370;2022-08-20T05:11:56;86981.00;;;28.40
74536;BMP180;63013;51.104;-115.370;2022-08-20T05:14:33;86986.60;;;28.40
74536;BMP180;63013;51.104;-115.370;2022-08-20T05:17:04;86984.40;;;28.40
74536;BMP180;63013;51.104;-115.370;2022-08-20T05:19:37;86983.60;;;28.40
74536;BMP180;63013;51.104;-115.370;2022-08-20T05:22:06;86981.00;;;28.40
74536;BMP180;63013;51.104;-115.370;2022-08-20T05:24:56;86981.60;;;28.40
74536;BMP180;63013;51.104;-115.370;2022-08-20T05:27:45;86982.40;;;28.40
74536;BMP180;63013;51.104;-115.370;2022-08-20T05:30:15;86983.40;;;28.40
74536;BMP180;63013;51.104;-115.370;2022-08-20T05:32:45;86986.20;;;28.40
74536;BMP180;63013;51.104;-115.370;2022-08-20T05:35:12;86988.20;;;28.40
74536;BMP180;63013;51.104;-115.370;2022-08-20T05:37:40;86990.00;;;28.40
74536;BMP180;63013;51.104;-115.370;2022-08-20T05:43:39;86994.40;;;28.40
74536;BMP180;63013;51.104;-115.370;2022-08-20T05:46:20;86996.80;;;28.40
74536;BMP180;63013;51.104;-115.370;2022-08-20T05:48:48;86995.40;;;28.38
74536;BMP180;63013;51.104;-115.370;2022-08-20T05:51:24;86992.80;;;28.34
74536;BMP180;63013;51.104;-115.370;2022-08-20T05:54:04;86989.00;;;28.30
74536;BMP180;63013;51.104;-115.370;2022-08-20T05:56:41;86987.40;;;28.30
74536;BMP180;63013;51.104;-115.370;2022-08-20T05:59:12;86988.60;;;28.30
74536;BMP180;63013;51.104;-115.370;2022-08-20T06:01:40;86990.80;;;28.30
74536;BMP180;63013;51.104;-115.370;2022-08-20T06:04:18;86994.80;;;28.30
74536;BMP180;63013;51.104;-115.370;2022-08-20T06:07:09;86993.40;;;28.30
74536;BMP180;63013;51.104;-115.370;2022-08-20T06:12:44;86994.60;;;28.30
74536;BMP180;63013;51.104;-115.370;2022-08-20T06:15:27;86995.00;;;28.30
74536;BMP180;63013;51.104;-115.370;2022-08-20T06:18:30;86994.20;;;28.30
74536;BMP180;63013;51.104;-115.370;2022-08-20T06:20:57;86987.20;;;28.30
74536;BMP180;63013;51.104;-115.370;2022-08-20T06:23:24;86985.60;;;28.26
74536;BMP180;63013;51.104;-115.370;2022-08-20T06:26:01;86985.60;;;28.30
74536;BMP180;63013;51.104;-115.370;2022-08-20T06:28:35;86986.20;;;28.30
74536;BMP180;63013;51.104;-115.370;2022-08-20T06:31:05;86979.20;;;28.24
74536;BMP180;63013;51.104;-115.370;2022-08-20T06:33:37;86984.20;;;28.24
74536;BMP180;63013;51.104;-115.370;2022-08-20T06:36:11;86984.20;;;28.20
74536;BMP180;63013;51.104;-115.370;2022-08-20T06:38:38;86981.60;;;28.20
74536;BMP180;63013;51.104;-115.370;2022-08-20T06:41:09;86979.40;;;28.20
74536;BMP180;63013;51.104;-115.370;2022-08-20T06:43:54;86981.60;;;28.20
74536;BMP180;63013;51.104;-115.370;2022-08-20T06:46:30;86983.40;;;28.20
74536;BMP180;63013;51.104;-115.370;2022-08-20T06:48:58;86986.40;;;28.20
74536;BMP180;63013;51.104;-115.370;2022-08-20T06:51:49;86984.60;;;28.20
74536;BMP180;63013;51.104;-115.370;2022-08-20T06:54:37;86992.40;;;28.20
74536;BMP180;63013;51.104;-115.370;2022-08-20T06:57:20;86987.80;;;28.20
74536;BMP180;63013;51.104;-115.370;2022-08-20T06:59:57;86989.40;;;28.20
74536;BMP180;63013;51.104;-115.370;2022-08-20T07:02:25;86992.00;;;28.18
74536;BMP180;63013;51.104;-115.370;2022-08-20T07:04:53;86992.20;;;28.12
74536;BMP180;63013;51.104;-115.370;2022-08-20T07:07:29;86994.80;;;28.10
74536;BMP180;63013;51.104;-115.370;2022-08-20T07:10:21;86997.00;;;28.10
74536;BMP180;63013;51.104;-115.370;2022-08-20T07:13:24;86993.20;;;28.10
74536;BMP180;63013;51.104;-115.370;2022-08-20T07:15:57;86998.00;;;28.10
74536;BMP180;63013;51.104;-115.370;2022-08-20T07:18:40;87001.40;;;28.10
74536;BMP180;63013;51.104;-115.370;2022-08-20T07:21:29;87000.40;;;28.10
74536;BMP180;63013;51.104;-115.370;2022-08-20T07:24:05;87001.80;;;28.10
74536;BMP180;63013;51.104;-115.370;2022-08-20T07:26:45;86997.60;;;28.10
74536;BMP180;63013;51.104;-115.370;2022-08-20T07:29:41;87004.60;;;28.10
74536;BMP180;63013;51.104;-115.370;2022-08-20T07:32:46;86998.40;;;28.10
74536;BMP180;63013;51.104;-115.370;2022-08-20T07:35:21;86999.00;;;28.10
74536;BMP180;63013;51.104;-115.370;2022-08-20T07:38:20;86997.60;;;28.10
74536;BMP180;63013;51.104;-115.370;2022-08-20T07:41:21;86994.40;;;28.10
74536;BMP180;63013;51.104;-115.370;2022-08-20T07:45:09;86987.00;;;28.10
74536;BMP180;63013;51.104;-115.370;2022-08-20T07:47:40;86986.80;;;28.06
74536;BMP180;63013;51.104;-115.370;2022-08-20T07:50:16;86988.20;;;28.06
74536;BMP180;63013;51.104;-115.370;2022-08-20T07:52:49;86988.20;;;28.06
74536;BMP180;63013;51.104;-115.370;2022-08-20T07:55:37;86982.00;;;28.00
74536;BMP180;63013;51.104;-115.370;2022-08-20T07:58:16;86985.60;;;28.00
74536;BMP180;63013;51.104;-115.370;2022-08-20T08:00:46;86988.80;;;28.00
74536;BMP180;63013;51.104;-115.370;2022-08-20T08:03:30;86991.40;;;28.00
74536;BMP180;63013;51.104;-115.370;2022-08-20T08:06:06;86995.60;;;28.00
74536;BMP180;63013;51.104;-115.370;2022-08-20T08:08:45;86999.20;;;28.00
74536;BMP180;63013;51.104;-115.370;2022-08-20T08:11:40;86997.20;;;28.00
74536;BMP180;63013;51.104;-115.370;2022-08-20T08:14:21;86990.60;;;28.00
74536;BMP180;63013;51.104;-115.370;2022-08-20T08:16:59;86991.20;;;28.00
74536;BMP180;63013;51.104;-115.370;2022-08-20T08:19:30;86990.20;;;28.00
74536;BMP180;63013;51.104;-115.370;2022-08-20T08:22:28;86997.00;;;28.00
74536;BMP180;63013;51.104;-115.370;2022-08-20T08:25:01;86997.00;;;28.00
74536;BMP180;63013;51.104;-115.370;2022-08-20T08:27:42;86996.60;;;27.98
74536;BMP180;63013;51.104;-115.370;2022-08-20T08:30:15;86994.80;;;27.96
74536;BMP180;63013;51.104;-115.370;2022-08-20T08:32:48;87001.80;;;27.96
74536;BMP180;63013;51.104;-115.370;2022-08-20T08:36:06;87007.80;;;27.90
74536;BMP180;63013;51.104;-115.370;2022-08-20T08:39:08;87010.40;;;27.90
74536;BMP180;63013;51.104;-115.370;2022-08-20T08:41:51;87014.20;;;27.90
74536;BMP180;63013;51.104;-115.370;2022-08-20T08:44:40;87015.60;;;27.90
74536;BMP180;63013;51.104;-115.370;2022-08-20T08:47:38;87018.60;;;27.90
74536;BMP180;63013;51.104;-115.370;2022-08-20T08:50:22;87022.40;;;27.90
74536;BMP180;63013;51.104;-115.370;2022-08-20T08:52:56;87021.00;;;27.90
74536;BMP180;63013;51.104;-115.370;2022-08-20T08:55:44;87021.60;;;27.90
74536;BMP180;63013;51.104;-115.370;2022-08-20T08:58:31;87025.60;;;27.90
74536;BMP180;63013;51.104;-115.370;2022-08-20T09:01:19;87024.00;;;27.84
74536;BMP180;63013;51.104;-115.370;2022-08-20T09:04:49;87020.00;;;27.80
74536;BMP180;63013;51.104;-115.370;2022-08-20T09:07:52;87022.60;;;27.80
74536;BMP180;63013;51.104;-115.370;2022-08-20T09:10:33;87020.80;;;27.80
74536;BMP180;63013;51.104;-115.370;2022-08-20T09:13:06;87021.80;;;27.80
74536;BMP180;63013;51.104;-115.370;2022-08-20T09:16:17;87017.80;;;27.80
74536;BMP180;63013;51.104;-115.370;2022-08-20T09:18:44;87019.40;;;27.80
74536;BMP180;63013;51.104;-115.370;2022-08-20T09:23:49;87026.20;;;27.80
74536;BMP180;63013;51.104;-115.370;2022-08-20T09:32:22;87026.20;;;27.80
74536;BMP180;63013;51.104;-115.370;2022-08-20T09:41:13;87030.80;;;27.80
74536;BMP180;63013;51.104;-115.370;2022-08-20T09:43:40;87031.00;;;27.80
74536;BMP180;63013;51.104;-115.370;2022-08-20T09:46:12;87042.20;;;27.80
74536;BMP180;63013;51.104;-115.370;2022-08-20T09:48:48;87043.00;;;27.80
74536;BMP180;63013;51.104;-115.370;2022-08-20T09:51:41;87042.60;;;27.80
74536;BMP180;63013;51.104;-115.370;2022-08-20T10:00:09;87049.40;;;27.70
74536;BMP180;63013;51.104;-115.370;2022-08-20T10:03:35;87053.20;;;27.70
74536;BMP180;63013;51.104;-115.370;2022-08-20T10:06:06;87044.40;;;27.70
74536;BMP180;63013;51.104;-115.370;2022-08-20T10:08:40;87049.00;;;27.70
74536;BMP180;63013;51.104;-115.370;2022-08-20T10:11:07;87051.80;;;27.70
74536;BMP180;63013;51.104;-115.370;2022-08-20T10:14:12;87050.40;;;27.70
74536;BMP180;63013;51.104;-115.370;2022-08-20T10:16:55;87048.00;;;27.60
74536;BMP180;63013;51.104;-115.370;2022-08-20T10:19:29;87059.00;;;27.60
74536;BMP180;63013;51.104;-115.370;2022-08-20T10:22:28;87057.20;;;27.60
74536;BMP180;63013;51.104;-115.370;2022-08-20T10:28:04;87065.20;;;27.60
74536;BMP180;63013;51.104;-115.370;2022-08-20T10:30:41;87054.80;;;27.56
74536;BMP180;63013;51.104;-115.370;2022-08-20T10:33:17;87059.40;;;27.52
74536;BMP180;63013;51.104;-115.370;2022-08-20T10:35:53;87060.00;;;27.50
74536;BMP180;63013;51.104;-115.370;2022-08-20T10:38:29;87067.40;;;27.50
74536;BMP180;63013;51.104;-115.370;2022-08-20T10:41:00;87070.00;;;27.50
74536;BMP180;63013;51.104;-115.370;2022-08-20T10:43:33;87072.40;;;27.50
74536;BMP180;63013;51.104;-115.370;2022-08-20T10:46:00;87073.00;;;27.50
74536;BMP180;63013;51.104;-115.370;2022-08-20T10:48:28;87072.60;;;27.50
74536;BMP180;63013;51.104;-115.370;2022-08-20T10:51:01;87071.00;;;27.50
74536;BMP180;63013;51.104;-115.370;2022-08-20T10:53:31;87076.00;;;27.50
74536;BMP180;63013;51.104;-115.370;2022-08-20T10:56:14;87073.00;;;27.42
74536;BMP180;63013;51.104;-115.370;2022-08-20T10:58:50;87075.20;;;27.40
74536;BMP180;63013;51.104;-115.370;2022-08-20T11:01:27;87080.80;;;27.40
74536;BMP180;63013;51.104;-115.370;2022-08-20T11:03:57;87083.00;;;27.40
74536;BMP180;63013;51.104;-115.370;2022-08-20T11:06:38;87081.80;;;27.40
74536;BMP180;63013;51.104;-115.370;2022-08-20T11:09:15;87071.80;;;27.40
74536;BMP180;63013;51.104;-115.370;2022-08-20T11:12:00;87074.40;;;27.40
74536;BMP180;63013;51.104;-115.370;2022-08-20T11:14:28;87075.00;;;27.36
74536;BMP180;63013;51.104;-115.370;2022-08-20T11:17:01;87076.60;;;27.30
74536;BMP180;63013;51.104;-115.370;2022-08-20T11:19:28;87079.20;;;27.30
74536;BMP180;63013;51.104;-115.370;2022-08-20T11:22:22;87075.00;;;27.30
74536;BMP180;63013;51.104;-115.370;2022-08-20T11:25:03;87078.20;;;27.30
74536;BMP180;63013;51.104;-115.370;2022-08-20T11:27:40;87087.80;;;27.30
74536;BMP180;63013;51.104;-115.370;2022-08-20T11:30:45;87080.40;;;27.30
74536;BMP180;63013;51.104;-115.370;2022-08-20T11:33:15;87076.00;;;27.30
74536;BMP180;63013;51.104;-115.370;2022-08-20T11:35:43;87077.40;;;27.20
74536;BMP180;63013;51.104;-115.370;2022-08-20T11:38:44;87080.20;;;27.20
74536;BMP180;63013;51.104;-115.370;2022-08-20T11:41:22;87080.60;;;27.20
74536;BMP180;63013;51.104;-115.370;2022-08-20T11:44:00;87079.80;;;27.20
74536;BMP180;63013;51.104;-115.370;2022-08-20T11:46:30;87083.20;;;27.20
74536;BMP180;63013;51.104;-115.370;2022-08-20T11:48:59;87083.20;;;27.20
74536;BMP180;63013;51.104;-115.370;2022-08-20T11:51:27;87086.20;;;27.20
74536;BMP180;63013;51.104;-115.370;2022-08-20T11:54:26;87086.80;;;27.18
74536;BMP180;63013;51.104;-115.370;2022-08-20T11:57:20;87091.20;;;27.10
74536;BMP180;63013;51.104;-115.370;2022-08-20T11:59:55;87084.40;;;27.12
74536;BMP180;63013;51.104;-115.370;2022-08-20T12:02:46;87085.00;;;27.10
74536;BMP180;63013;51.104;-115.370;2022-08-20T12:05:24;87085.20;;;27.10
74536;BMP180;63013;51.104;-115.370;2022-08-20T12:08:21;87077.80;;;27.10
74536;BMP180;63013;51.104;-115.370;2022-08-20T12:11:01;87080.00;;;27.10
74536;BMP180;63013;51.104;-115.370;2022-08-20T12:13:42;87075.00;;;27.10
74536;BMP180;63013;51.104;-115.370;2022-08-20T12:16:12;87072.00;;;27.10
74536;BMP180;63013;51.104;-115.370;2022-08-20T12:18:46;87074.80;;;27.06
74536;BMP180;63013;51.104;-115.370;2022-08-20T12:21:17;87077.20;;;27.00
74536;BMP180;63013;51.104;-115.370;2022-08-20T12:23:50;87076.80;;;27.00
74536;BMP180;63013;51.104;-115.370;2022-08-20T12:26:18;87075.40;;;27.00
74536;BMP180;63013;51.104;-115.370;2022-08-20T12:29:05;87079.00;;;27.00
74536;BMP180;63013;51.104;-115.370;2022-08-20T12:31:44;87079.60;;;27.00
74536;BMP180;63013;51.104;-115.370;2022-08-20T12:34:14;87076.40;;;27.00
74536;BMP180;63013;51.104;-115.370;2022-08-20T12:36:44;87081.00;;;27.00
74536;BMP180;63013;51.104;-115.370;2022-08-20T12:39:20;87076.60;;;27.00
74536;BMP180;63013;51.104;-115.370;2022-08-20T12:41:47;87082.20;;;27.00
74536;BMP180;63013;51.104;-115.370;2022-08-20T12:44:40;87083.00;;;27.00
74536;BMP180;63013;51.104;-115.370;2022-08-20T12:50:08;87080.40;;;26.90
74536;BMP180;63013;51.104;-115.370;2022-08-20T12:52:44;87083.20;;;26.90
74536;BMP180;63013;51.104;-115.370;2022-08-20T12:58:39;87088.20;;;26.90
74536;BMP180;63013;51.104;-115.370;2022-08-20T13:01:20;87092.20;;;26.90
74536;BMP180;63013;51.104;-115.370;2022-08-20T13:04:01;87094.20;;;26.90
74536;BMP180;63013;51.104;-115.370;2022-08-20T13:06:51;87098.60;;;26.90
74536;BMP180;63013;51.104;-115.370;2022-08-20T13:09:45;87105.20;;;26.86
74536;BMP180;63013;51.104;-115.370;2022-08-20T13:12:16;87110.60;;;26.84
74536;BMP180;63013;51.104;-115.370;2022-08-20T13:15:16;87114.80;;;26.80
74536;BMP180;63013;51.104;-115.370;2022-08-20T13:17:53;87114.40;;;26.80
74536;BMP180;63013;51.104;-115.370;2022-08-20T13:20:48;87116.40;;;26.80
74536;BMP180;63013;51.104;-115.370;2022-08-20T13:23:21;87118.20;;;26.80
74536;BMP180;63013;51.104;-115.370;2022-08-20T13:25:54;87114.60;;;26.80
74536;BMP180;63013;51.104;-115.370;2022-08-20T13:28:24;87120.20;;;26.80
74536;BMP180;63013;51.104;-115.370;2022-08-20T13:31:37;87122.20;;;26.80
74536;BMP180;63013;51.104;-115.370;2022-08-20T13:33:54;87131.80;;;26.80
74536;BMP180;63013;51.104;-115.370;2022-08-20T13:36:43;87134.80;;;26.80
74536;BMP180;63013;51.104;-115.370;2022-08-20T13:39:21;87134.20;;;26.80
74536;BMP180;63013;51.104;-115.370;2022-08-20T13:41:52;87136.20;;;26.80
74536;BMP180;63013;51.104;-115.370;2022-08-20T13:44:22;87142.00;;;26.76
74536;BMP180;63013;51.104;-115.370;2022-08-20T13:46:58;87145.80;;;26.72
74536;BMP180;63013;51.104;-115.370;2022-08-20T13:49:31;87148.60;;;26.70
74536;BMP180;63013;51.104;-115.370;2022-08-20T13:52:01;87148.60;;;26.70
74536;BMP180;63013;51.104;-115.370;2022-08-20T13:54:31;87149.60;;;26.70
74536;BMP180;63013;51.104;-115.370;2022-08-20T14:00:34;87147.40;;;26.70
74536;BMP180;63013;51.104;-115.370;2022-08-20T14:03:06;87151.40;;;26.70
74536;BMP180;63013;51.104;-115.370;2022-08-20T14:05:46;87155.20;;;26.70
74536;BMP180;63013;51.104;-115.370;2022-08-20T14:08:23;87154.20;;;26.70
74536;BMP180;63013;51.104;-115.370;2022-08-20T14:11:02;87155.60;;;26.64
74536;BMP180;63013;51.104;-115.370;2022-08-20T14:27:35;87165.00;;;26.70
74536;BMP180;63013;51.104;-115.370;2022-08-20T14:30:07;87168.80;;;26.70
74536;BMP180;63013;51.104;-115.370;2022-08-20T14:32:41;87175.40;;;26.70
74536;BMP180;63013;51.104;-115.370;2022-08-20T14:35:19;87176.20;;;26.70
74536;BMP180;63013;51.104;-115.370;2022-08-20T14:38:06;87181.40;;;26.70
74536;BMP180;63013;51.104;-115.370;2022-08-20T14:40:39;87184.60;;;26.70
74536;BMP180;63013;51.104;-115.370;2022-08-20T14:43:11;87185.00;;;26.70
74536;BMP180;63013;51.104;-115.370;2022-08-20T14:45:41;87182.60;;;26.70
74536;BMP180;63013;51.104;-115.370;2022-08-20T14:48:33;87180.40;;;26.70
74536;BMP180;63013;51.104;-115.370;2022-08-20T14:51:16;87177.60;;;26.70
74536;BMP180;63013;51.104;-115.370;2022-08-20T14:53:46;87180.40;;;26.68
74536;BMP180;63013;51.104;-115.370;2022-08-20T14:56:39;87184.40;;;26.64
74536;BMP180;63013;51.104;-115.370;2022-08-20T14:59:08;87181.80;;;26.60
74536;BMP180;63013;51.104;-115.370;2022-08-20T15:01:58;87186.60;;;26.60
74536;BMP180;63013;51.104;-115.370;2022-08-20T15:04:25;87194.00;;;26.60
74536;BMP180;63013;51.104;-115.370;2022-08-20T15:07:02;87193.80;;;26.60
74536;BMP180;63013;51.104;-115.370;2022-08-20T15:09:35;87195.40;;;26.60
74536;BMP180;63013;51.104;-115.370;2022-08-20T15:12:03;87201.20;;;26.60
74536;BMP180;63013;51.104;-115.370;2022-08-20T15:14:30;87206.60;;;26.60
74536;BMP180;63013;51.104;-115.370;2022-08-20T15:17:06;87213.00;;;26.60
74536;BMP180;63013;51.104;-115.370;2022-08-20T15:19:41;87221.40;;;26.60
74536;BMP180;63013;51.104;-115.370;2022-08-20T15:22:59;87225.20;;;26.60
74536;BMP180;63013;51.104;-115.370;2022-08-20T15:25:34;87229.80;;;26.60
74536;BMP180;63013;51.104;-115.370;2022-08-20T15:28:05;87230.60;;;26.54
74536;BMP180;63013;51.104;-115.370;2022-08-20T15:30:42;87235.20;;;26.60
74536;BMP180;63013;51.104;-115.370;2022-08-20T15:36:30;87241.80;;;26.50
74536;BMP180;63013;51.104;-115.370;2022-08-20T15:39:00;87244.40;;;26.50
74536;BMP180;63013;51.104;-115.370;2022-08-20T15:41:51;87249.60;;;26.50
74536;BMP180;63013;51.104;-115.370;2022-08-20T15:44:18;87255.40;;;26.50
74536;BMP180;63013;51.104;-115.370;2022-08-20T15:46:45;87260.40;;;26.50
74536;BMP180;63013;51.104;-115.370;2022-08-20T15:49:12;87266.40;;;26.50
74536;BMP180;63013;51.104;-115.370;2022-08-20T15:51:46;87269.80;;;26.50
74536;BMP180;63013;51.104;-115.370;2022-08-20T15:54:25;87278.00;;;26.50
74536;BMP180;63013;51.104;-115.370;2022-08-20T16:00:23;87263.80;;;26.50
74536;BMP180;63013;51.104;-115.370;2022-08-20T16:12:12;87242.80;;;26.50
74536;BMP180;63013;51.104;-115.370;2022-08-20T16:14:55;87233.80;;;26.50
74536;BMP180;63013;51.104;-115.370;2022-08-20T16:17:36;87230.80;;;26.50
74536;BMP180;63013;51.104;-115.370;2022-08-20T16:20:50;87226.40;;;26.50
74536;BMP180;63013;51.104;-115.370;2022-08-20T16:23:11;87218.00;;;26.50
74536;BMP180;63013;51.104;-115.370;2022-08-20T16:30:05;87197.00;;;26.50
74536;BMP180;63013;51.104;-115.370;2022-08-20T16:32:43;87185.80;;;26.50
74536;BMP180;63013;51.104;-115.370;2022-08-20T16:35:33;87188.20;;;26.50
74536;BMP180;63013;51.104;-115.370;2022-08-20T16:39:00;87188.80;;;26.50
74536;BMP180;63013;51.104;-115.370;2022-08-20T16:41:44;87181.60;;;26.50
74536;BMP180;63013;51.104;-115.370;2022-08-20T16:44:32;87182.00;;;26.50
74536;BMP180;63013;51.104;-115.370;2022-08-20T16:47:42;87177.40;;;26.50
74536;BMP180;63013;51.104;-115.370;2022-08-20T16:50:22;87179.00;;;26.50
74536;BMP180;63013;51.104;-115.370;2022-08-20T16:52:56;87183.80;;;26.50
74536;BMP180;63013;51.104;-115.370;2022-08-20T16:55:23;87186.20;;;26.50
74536;BMP180;63013;51.104;-115.370;2022-08-20T17:17:38;87199.00;;;26.60
74536;BMP180;63013;51.104;-115.370;2022-08-20T17:21:05;87204.80;;;26.60
74536;BMP180;63013;51.104;-115.370;2022-08-20T17:46:28;87203.80;;;26.70